• Join FlightAware (Why Join?)
  • Login
  • US Flag 
Gobble Gobble! 
01:42AM EST


 

Airport Tracker/Info


-or-


 

Live Flight TrackerFlight Track Log ✈ AVN10 ✈ 12-Nov-2013 ✈ NVVV / VLI - YSSY / SYD

Flight Track Log - Related Links

Times and Time Zones

All times are in EST time to prevent confusion due to time zone crossing. See the AVN10 flight status page for this flight to view local times or setup timezone preferences in your user account.

Time Position Orientation Groundspeed Altitude Reporting Facility
EST Latitude Longitude Course Direction KTS MPH feet Rate Location/Type
12:55AM -18.2220 168.0531 206° Southwest  Level FlightAware Approximate
12:56AM -18.3103 167.9737 204° Southwest  Level Estimated
12:57AM -18.4166 167.9242 204° Southwest  Level FlightAware Approximate
12:58AM -18.5229 167.8747 204° Southwest  Level FlightAware Approximate
12:59AM -18.6291 167.8252 204° Southwest  Level FlightAware Approximate
01:00AM -18.7354 167.7755 204° Southwest  Level FlightAware Approximate
01:01AM -18.8416 167.7258 204° Southwest  Level FlightAware Approximate
01:02AM -18.9478 167.6761 204° Southwest  Level FlightAware Approximate
01:03AM -19.0540 167.6262 204° Southwest  Level FlightAware Approximate
01:04AM -19.1602 167.5764 204° Southwest  Level FlightAware Approximate
01:05AM -19.2664 167.5264 204° Southwest  Level FlightAware Approximate
01:06AM -19.3726 167.4764 204° Southwest  Level FlightAware Approximate
01:07AM -19.4787 167.4263 204° Southwest  Level FlightAware Approximate
01:08AM -19.5849 167.3761 204° Southwest  Level FlightAware Approximate
01:09AM -19.6910 167.3259 204° Southwest  Level FlightAware Approximate
01:10AM -19.7971 167.2757 204° Southwest  Level FlightAware Approximate
01:11AM -19.9032 167.2253 204° Southwest  Level FlightAware Approximate
01:12AM -20.0093 167.1749 204° Southwest  Level FlightAware Approximate
01:13AM -20.1153 167.1244 204° Southwest  Level FlightAware Approximate
01:14AM -20.2214 167.0739 204° Southwest  Level FlightAware Approximate
01:15AM -20.3274 167.0232 204° Southwest  Level FlightAware Approximate
01:16AM -20.4335 166.9725 204° Southwest  Level FlightAware Approximate
01:17AM -20.5395 166.9218 204° Southwest  Level FlightAware Approximate
01:18AM -20.6455 166.8710 204° Southwest  Level FlightAware Approximate
01:18AM -20.5190 166.9180 224° Southwest 426 490 36,000  Level FlightAware
01:19AM -20.7514 166.8201 204° Southwest  Level FlightAware Approximate
01:19AM -20.6270 166.8670 204° Southwest 425 489 36,000  Level FlightAware
01:20AM -20.8363 166.7351 224° Southwest  Level Estimated
01:20AM -20.6850 166.8400 204° Southwest 425 489 36,000  Level FlightAware
01:21AM -20.7940 166.7880 204° Southwest 421 484 36,000  Level FlightAware
01:22AM -20.8820 166.7470 204° Southwest 420 483 36,000  Level FlightAware
01:22AM -20.9350 166.7220 204° Southwest 419 482 36,000  Level FlightAware
01:23AM -21.0530 166.6660 204° Southwest 418 481 36,000  Level FlightAware
01:24AM -21.1130 166.6370 204° Southwest 417 480 36,000  Level FlightAware
01:25AM -21.1770 166.6070 204° Southwest 416 479 36,000  Level FlightAware
01:26AM -21.2830 166.5570 204° Southwest 415 478 36,000  Level FlightAware
01:26AM -21.3580 166.5210 204° Southwest 415 478 36,000  Level FlightAware
01:27AM -21.4080 166.4980 203° Southwest 415 478 36,000  Level FlightAware
01:27AM -21.4720 166.4670 204° Southwest 414 476 36,000  Level FlightAware
01:28AM -21.5830 166.4140 204° Southwest 414 476 36,000  Level FlightAware
01:29AM -21.6680 166.3730 204° Southwest 414 476 36,000  Level FlightAware
01:30AM -21.7380 166.3400 204° Southwest 414 476 36,000  Level FlightAware
01:30AM -21.8040 166.3080 204° Southwest 414 476 36,000  Level FlightAware
01:32AM -21.9250 166.2500 204° Southwest 414 476 36,000  Level FlightAware
01:32AM -21.9810 166.2230 204° Southwest 411 473 36,000  Level FlightAware
01:33AM -22.0320 166.1840 215° Southwest 402 463 36,000  Level FlightAware
01:34AM -22.1270 166.0840 224° Southwest 401 461 36,000  Level FlightAware
01:34AM -22.1550 166.0550 224° Southwest 401 461 36,000  Level FlightAware
01:35AM -22.1950 166.0130 224° Southwest 401 461 36,000  Level FlightAware
01:35AM -22.2460 165.9600 224° Southwest 402 463 36,000  Level FlightAware
01:36AM -22.2890 165.9140 225° Southwest 402 463 36,000  Level FlightAware
01:37AM -22.3420 165.8590 224° Southwest 401 461 36,000  Level FlightAware
01:38AM -22.4190 165.7780 224° Southwest 401 461 36,000  Level FlightAware
01:38AM -22.4690 165.7250 224° Southwest 401 461 36,000  Level FlightAware
01:39AM -22.5120 165.6800 224° Southwest 400 460 36,000  Level FlightAware
01:39AM -22.5650 165.6240 224° Southwest 400 460 36,000  Level FlightAware
01:40AM -22.6340 165.5510 224° Southwest 400 460 36,000  Level FlightAware
01:41AM -22.6700 165.5120 225° Southwest 400 460 36,000  Level FlightAware
01:41AM -22.7180 165.4610 224° Southwest 399 459 36,000  Level FlightAware
01:42AM -22.7580 165.4190 224° Southwest 399 459 36,000  Level FlightAware
01:42AM -22.7980 165.3770 224° Southwest 399 459 36,000  Level FlightAware
01:43AM -22.8390 165.3330 225° Southwest 398 458 36,000  Level FlightAware
01:44AM -22.9110 165.2570 224° Southwest 399 459 36,000  Level FlightAware
01:44AM -22.9570 165.2070 225° Southwest 399 459 36,000  Level FlightAware
01:45AM -23.0060 165.1550 224° Southwest 400 460 36,000  Level FlightAware
01:46AM -23.0510 165.1070 224° Southwest 400 460 36,000  Level FlightAware
01:46AM -23.0950 165.0610 224° Southwest 399 459 36,000  Level FlightAware
01:47AM -23.1430 165.0090 225° Southwest 399 459 36,000  Level FlightAware
01:47AM -23.1780 164.9710 225° Southwest 400 460 36,000  Level FlightAware
01:48AM -23.2090 164.9380 224° Southwest 400 460 36,000  Level FlightAware
01:48AM -23.2700 164.8730 224° Southwest 401 461 36,000  Level FlightAware
01:49AM -23.3130 164.8260 225° Southwest 402 463 36,000  Level FlightAware
01:49AM -23.3290 164.8100 223° Southwest 403 464 36,000  Level FlightAware
01:50AM -23.4110 164.7210 225° Southwest 403 464 36,000  Level FlightAware
01:51AM -23.4510 164.6770 225° Southwest 403 464 36,000  Level FlightAware
01:51AM -23.4780 164.6470 226° Southwest 403 464 36,000  Level FlightAware
01:52AM -23.5460 164.5730 225° Southwest 403 464 36,000  Level FlightAware
01:53AM -23.5730 164.5430 226° Southwest 403 464 36,000  Level FlightAware
01:53AM -23.6130 164.4990 225° Southwest 403 464 36,000  Level FlightAware
01:54AM -23.6540 164.4550 225° Southwest 403 464 36,000  Level FlightAware
01:55AM -23.7210 164.3820 225° Southwest 403 464 36,000  Level FlightAware
01:56AM -23.7620 164.3370 225° Southwest 403 464 36,000  Level FlightAware
01:56AM -23.8030 164.2930 224° Southwest 403 464 36,000  Level FlightAware
01:57AM -23.8300 164.2630 225° Southwest 403 464 36,000  Level FlightAware
01:57AM -23.8700 164.2190 225° Southwest 403 464 36,000  Level FlightAware
01:58AM -23.9100 164.1750 225° Southwest 403 464 36,000  Level FlightAware
01:58AM -23.9510 164.1310 224° Southwest 403 464 36,000  Level FlightAware
02:01AM -24.1323 163.9337 225° Southwest  Level FlightAware Approximate
02:02AM -24.2146 163.8438 225° Southwest  Level FlightAware Approximate
02:03AM -24.2969 163.7538 225° Southwest  Level FlightAware Approximate
02:04AM -24.3791 163.6638 225° Southwest  Level FlightAware Approximate
02:04AM -24.7379 163.2680 224° Southwest 36,000  Level Aus ATC (Calculated)
02:04AM -24.7379 163.2680 224° Southwest 36,000  Level Aus ATC (Calculated)
02:06AM -24.8436 163.1511 225° Southwest  Level FlightAware Approximate
02:07AM -24.9219 163.0643 225° Southwest  Level FlightAware Approximate
02:07AM -25.0167 162.9567 224° Southwest 36,000  Level Aus ATC (Calculated)
02:08AM -25.0002 162.9774 225° Southwest  Level FlightAware Approximate
02:09AM -24.9140 163.0771 47° Northeast  Level FlightAware Approximate
02:10AM -24.9901 162.9880 227° Southwest  Level FlightAware Approximate
02:10AM -25.2733 162.6685 224° Southwest 36,000  Level Aus ATC (Calculated)
02:11AM -24.9140 163.0771 47° Northeast  Level FlightAware Approximate
02:12AM -25.4265 162.4908 225° Southwest  Level Estimated
02:12AM -25.5527 162.3524 224° Southwest 36,000  Level Aus ATC (Calculated)
02:13AM -25.5034 162.4038 226° Southwest  Level FlightAware Approximate
02:13AM -25.6382 162.2553 224° Southwest 36,000  Level Aus ATC (Calculated)
02:13AM -25.6382 162.2553 224° Southwest 36,000  Level Aus ATC (Calculated)
02:15AM -25.7404 162.1388 226° Southwest  Level FlightAware Approximate
02:16AM -25.8171 162.0513 226° Southwest  Level FlightAware Approximate
02:17AM -25.8937 161.9636 226° Southwest  Level FlightAware Approximate
02:18AM -25.9702 161.8759 226° Southwest  Level FlightAware Approximate
02:19AM -26.0467 161.7881 226° Southwest  Level FlightAware Approximate
02:20AM -26.1231 161.7001 226° Southwest  Level FlightAware Approximate
02:21AM -26.1995 161.6120 226° Southwest  Level FlightAware Approximate
02:22AM -26.2758 161.5238 226° Southwest  Level FlightAware Approximate
02:23AM -26.3521 161.4355 226° Southwest  Level FlightAware Approximate
02:24AM -26.4283 161.3471 226° Southwest  Level FlightAware Approximate
02:25AM -26.5044 161.2585 226° Southwest  Level FlightAware Approximate
02:26AM -26.5805 161.1699 226° Southwest  Level FlightAware Approximate
02:27AM -26.6566 161.0811 226° Southwest  Level FlightAware Approximate
02:28AM -26.7326 160.9922 226° Southwest  Level FlightAware Approximate
02:29AM -26.8085 160.9032 226° Southwest  Level FlightAware Approximate
02:30AM -26.8844 160.8141 226° Southwest  Level FlightAware Approximate
02:31AM -26.9602 160.7248 226° Southwest  Level FlightAware Approximate
02:31AM -27.4034 160.1993 224° Southwest 36,000  Level Aus ATC (Calculated)
02:32AM -27.0360 160.6354 226° Southwest  Level FlightAware Approximate
02:33AM -27.4877 160.0987 227° Southwest  Level FlightAware Approximate
02:33AM -27.6168 159.9439 224° Southwest 36,000  Level Aus ATC (Calculated)
02:34AM -27.5630 160.0085 227° Southwest  Level FlightAware Approximate
02:35AM -27.7009 159.8429 227° Southwest  Level FlightAware Approximate
02:35AM -27.8165 159.7036 223° Southwest 36,000  Level Aus ATC (Calculated)
02:36AM -27.7761 159.7523 227° Southwest  Level FlightAware Approximate
02:37AM -27.9004 159.6022 227° Southwest  Level FlightAware Approximate
02:38AM -27.9754 159.5113 227° Southwest  Level FlightAware Approximate
02:39AM -28.0504 159.4203 227° Southwest  Level FlightAware Approximate
02:40AM -28.1253 159.3291 227° Southwest  Level FlightAware Approximate
02:40AM -28.1996 159.2385 222° Southwest 36,000  Level Aus ATC (Calculated)
02:40AM -28.2542 159.1718 222° Southwest 36,000 60 Level Aus ATC (Calculated)
02:42AM -28.3180 159.0937 227° Southwest  Level FlightAware Approximate
02:43AM -28.0377 159.1178 348° North  Level FlightAware Approximate
02:43AM -28.4582 158.9214 220° Southwest 36,000  Level Aus ATC (Calculated)
02:44AM -28.5397 158.8210 220° Southwest 36,000 60 Level Aus ATC (Calculated)
02:44AM -28.5804 158.7708 219° Southwest 36,000 60 Level Aus ATC (Calculated)
02:46AM -28.4748 158.9010 47° Northeast  Level FlightAware Approximate
02:47AM -28.3955 158.9986 47° Northeast  Level FlightAware Approximate
02:48AM -28.3162 159.0959 47° Northeast  Level FlightAware Approximate
02:48AM -28.9053 158.3672 211° Southwest 36,000  Level Aus ATC (Calculated)
02:50AM -28.7856 158.5163 48° Northeast  Level FlightAware Approximate
02:51AM -28.7066 158.6144 47° Northeast  Level FlightAware Approximate
02:52AM -28.6275 158.7124 47° Northeast  Level FlightAware Approximate
02:53AM -28.5484 158.8102 47° Northeast  Level FlightAware Approximate
02:53AM -29.3097 157.8593 93° East 36,000  Level Aus ATC (Calculated)
02:54AM -28.4692 158.9079 47° Northeast  Level FlightAware Approximate
02:55AM -29.4383 157.6886 227° Southwest  Level Estimated
02:56AM -29.5168 157.5893 228° Southwest  Level FlightAware Approximate
02:57AM -29.5952 157.4898 228° Southwest  Level FlightAware Approximate
02:58AM -29.6736 157.3902 228° Southwest  Level FlightAware Approximate
02:58AM -29.7523 157.2959 58° Northeast 36,000  Level Aus ATC (Calculated)
03:00AM -29.8849 157.1256 228° Southwest  Level FlightAware Approximate
03:01AM -29.9628 157.0252 228° Southwest  Level FlightAware Approximate
03:01AM -30.0327 156.9349 55° Northeast 36,000  Level Aus ATC (Calculated)
03:02AM -30.0406 156.9247 228° Southwest  Level FlightAware Approximate
03:02AM -29.3189 158.0763 228° Southwest 429 494 38,200  Level Aus ATC (RADAR)
03:03AM -29.3659 158.0238 224° Southwest 414 476 38,200  Level Aus ATC (RADAR)
03:04AM -29.4285 157.9557 223° Southwest 413 475 38,200  Level Aus ATC (RADAR)
03:04AM -29.4784 157.9023 223° Southwest 415 478 38,200  Level Aus ATC (RADAR)
03:05AM -29.5646 157.8105 223° Southwest 419 482 38,200  Level Aus ATC (RADAR)
03:06AM -29.6198 157.7502 224° Southwest 415 478 38,200  Level Aus ATC (RADAR)
03:07AM -29.7119 157.6503 223° Southwest 417 480 38,200  Level Aus ATC (RADAR)
03:07AM -29.7328 157.6273 224° Southwest 418 481 38,200  Level Aus ATC (RADAR)
03:08AM -29.7841 157.5732 222° Southwest 421 484 38,200  Level Aus ATC (RADAR)
03:09AM -29.8565 157.4948 223° Southwest 425 489 38,200  Level Aus ATC (RADAR)
03:09AM -29.9052 157.4410 224° Southwest 421 484 38,200  Level Aus ATC (RADAR)
03:10AM -29.9722 157.3654 224° Southwest 413 475 38,200  Level Aus ATC (RADAR)
03:10AM -29.9933 157.3427 223° Southwest 414 476 38,200 -540 Level Aus ATC (RADAR)
03:10AM -29.9990 157.3360 224° Southwest 425 489 38,000  Descending FlightAware
03:11AM -30.0434 157.2875 224° Southwest 420 483 38,200  Climbing Aus ATC (RADAR)
03:11AM -30.0460 157.2850 223° Southwest 424 488 38,000 -300 Descending FlightAware
03:12AM -30.0910 157.2360 223° Southwest 424 488 38,000 240 Level FlightAware
03:12AM -30.1150 157.2087 223° Southwest 423 487 38,200 300 Climbing Aus ATC (RADAR)
03:12AM -30.1591 157.1611 223° Southwest 427 491 38,200 -420 Level Aus ATC (RADAR)
03:12AM -30.1350 157.1890 223° Southwest 424 488 38,000  Descending FlightAware
03:13AM -30.2095 157.1058 223° Southwest 428 493 38,200  Climbing Aus ATC (RADAR)
03:13AM -30.1940 157.1260 223° Southwest 424 488 38,000  Descending FlightAware
03:14AM -30.2787 157.0286 223° Southwest 420 483 38,200 180 Climbing Aus ATC (RADAR)
03:14AM -30.3147 156.9889 224° Southwest 425 489 38,200 -360 Level Aus ATC (RADAR)
03:14AM -30.2810 157.0310 224° Southwest 424 488 38,000 -300 Descending FlightAware
03:15AM -30.3250 156.9830 223° Southwest 424 488 38,000  Level FlightAware
03:15AM -30.3540 156.9520 223° Southwest 424 488 38,000 300 Level FlightAware
03:15AM -30.4363 156.8545 223° Southwest 425 489 38,200 240 Climbing Aus ATC (RADAR)
03:16AM -30.4849 156.8003 223° Southwest 419 482 38,200 -240 Level Aus ATC (RADAR)
03:16AM -30.5160 156.7650 223° Southwest 410 472 38,000 -240 Descending FlightAware
03:17AM -30.5470 156.7310 223° Southwest 410 472 38,000 360 Level FlightAware
03:17AM -30.5606 156.7159 223° Southwest 413 475 38,200  Climbing Aus ATC (RADAR)
03:18AM -30.6170 156.6510 223° Southwest 410 472 38,000  Descending FlightAware
03:18AM -30.6528 156.6131 223° Southwest 424 488 38,200  Climbing Aus ATC (RADAR)
03:18AM -30.6590 156.6040 223° Southwest 410 472 38,000  Descending FlightAware
03:19AM -30.7243 156.5336 223° Southwest 427 491 38,200  Climbing Aus ATC (RADAR)
03:19AM -30.7150 156.5420 224° Southwest 410 472 38,000 -240 Descending FlightAware
03:20AM -30.7540 156.4980 224° Southwest 410 472 38,000  Level FlightAware
03:20AM -30.7820 156.4660 224° Southwest 410 472 38,000  Level FlightAware
03:21AM -30.9170 156.3172 224° Southwest 412 474 38,000  Level Aus ATC (RADAR)
03:21AM -30.8530 156.3870 224° Southwest 410 472 38,000  Level FlightAware
03:22AM -30.8960 156.3380 224° Southwest 410 472 38,000 180 Level FlightAware
03:22AM -30.9996 156.2237 224° Southwest 414 476 38,200  Climbing Aus ATC (RADAR)
03:23AM -31.0343 156.1848 224° Southwest 415 478 38,000 -240 Descending Aus ATC (RADAR)
03:23AM -30.9790 156.2440 224° Southwest 410 472 38,000 120 Level FlightAware
03:23AM -31.0893 156.1223 224° Southwest 415 478 38,100 120 Climbing Aus ATC (RADAR)
03:24AM -31.1453 156.0593 224° Southwest 418 481 38,100 -120 Level Aus ATC (RADAR)
03:24AM -31.0640 156.1490 224° Southwest 410 472 38,000 -180 Descending FlightAware
03:25AM -31.0920 156.1180 223° Southwest 410 472 38,000 60 Level FlightAware
03:25AM -31.2571 155.9325 223° Southwest 421 484 38,100  Climbing Aus ATC (RADAR)
03:25AM -31.1330 156.0710 223° Southwest 410 472 38,000 -180 Descending FlightAware
03:26AM -31.1750 156.0230 224° Southwest 410 472 38,000  Level FlightAware
03:26AM -31.2040 155.9910 223° Southwest 410 472 38,000 60 Level FlightAware
03:27AM -31.4194 155.7472 223° Southwest 427 491 38,100  Climbing Aus ATC (RADAR)
03:28AM -31.4547 155.7067 224° Southwest 427 491 38,000  Descending Aus ATC (RADAR)
03:28AM -31.5042 155.6503 224° Southwest 426 490 38,100  Climbing Aus ATC (RADAR)
03:29AM -31.5580 155.5870 224° Southwest 424 488 38,000  Descending FlightAware
03:29AM -31.5670 155.5781 224° Southwest 423 487 38,100 120 Climbing Aus ATC (RADAR)
03:30AM -31.6228 155.5140 224° Southwest 423 487 38,100 -120 Level Aus ATC (RADAR)
03:30AM -31.6460 155.4870 224° Southwest 421 484 38,000  Descending FlightAware
03:30AM -31.6852 155.4420 224° Southwest 421 484 38,100  Climbing Aus ATC (RADAR)
03:31AM -31.7199 155.4020 224° Southwest 421 484 38,000 -240 Descending Aus ATC (RADAR)
03:31AM -31.7160 155.4060 224° Southwest 420 483 38,000  Level FlightAware
03:32AM -31.7640 155.3520 224° Southwest 420 483 38,000  Level FlightAware
03:32AM -31.8060 155.3030 224° Southwest 420 483 38,000  Level FlightAware
03:32AM -31.8445 155.2582 224° Southwest 420 483 38,000  Level Aus ATC (RADAR)
03:33AM -31.8788 155.2181 224° Southwest 419 482 38,000  Level Aus ATC (RADAR)
03:33AM -31.8500 155.2530 224° Southwest 420 483 38,000  Level FlightAware
03:33AM -31.9278 155.1613 224° Southwest 423 487 38,000  Level Aus ATC (RADAR)
03:34AM -31.9650 155.1180 224° Southwest 429 494 38,000  Level FlightAware
03:34AM -32.0240 155.0480 224° Southwest 429 494 38,000  Level FlightAware
03:35AM -32.0476 155.0217 224° Southwest 429 494 38,000  Level Aus ATC (RADAR)
03:35AM -32.0460 155.0230 224° Southwest 429 494 38,000  Level FlightAware
03:35AM -32.1177 154.9405 224° Southwest 426 490 38,000  Level Aus ATC (RADAR)
03:36AM -32.1090 154.9510 224° Southwest 429 494 38,000  Level FlightAware
03:36AM -32.1690 154.8800 224° Southwest 426 490 38,000 60 Level FlightAware
03:36AM -32.2012 154.8425 224° Southwest 424 488 38,100  Climbing Aus ATC (RADAR)
03:37AM -32.2190 154.8220 224° Southwest 427 491 38,000 -120 Descending FlightAware
03:37AM -32.2630 154.7710 224° Southwest 427 491 38,000 120 Level FlightAware
03:37AM -32.2852 154.7440 224° Southwest 427 491 38,100 180 Climbing Aus ATC (RADAR)
03:38AM -32.3204 154.7027 224° Southwest 428 493 38,100 -120 Level Aus ATC (RADAR)
03:38AM -32.3686 154.6452 225° Southwest 425 489 38,000 -180 Descending Aus ATC (RADAR)
03:38AM -32.3640 154.6500 225° Southwest 423 487 38,000  Level FlightAware
03:39AM -32.4260 154.5780 225° Southwest 416 479 38,000 120 Level FlightAware
03:39AM -32.4375 154.5640 225° Southwest 422 486 38,100  Climbing Aus ATC (RADAR)
03:40AM -32.4760 154.5180 225° Southwest 422 486 38,000 -180 Descending FlightAware
03:40AM -32.4861 154.5068 225° Southwest 423 487 38,000  Level Aus ATC (RADAR)
03:41AM -32.5390 154.4440 225° Southwest 424 488 38,000  Level FlightAware
03:41AM -32.5553 154.4252 225° Southwest 423 487 38,000  Level Aus ATC (RADAR)
03:41AM -32.5820 154.3930 225° Southwest 423 487 38,000  Level FlightAware
03:41AM -32.5898 154.3841 225° Southwest 423 487 38,000  Level Aus ATC (RADAR)
03:42AM -32.6320 154.3330 225° Southwest 425 489 38,000  Level FlightAware
03:42AM -32.6900 154.2640 225° Southwest 425 489 38,000 120 Level FlightAware
03:42AM -32.7006 154.2521 225° Southwest 424 488 38,100  Climbing Aus ATC (RADAR)
03:43AM -32.7290 154.2180 225° Southwest 427 491 38,000 -240 Descending FlightAware
03:43AM -32.7841 154.1527 225° Southwest 426 490 37,900  Descending Aus ATC (RADAR)
03:43AM -32.7790 154.1580 225° Southwest 425 489 38,000 120 Climbing FlightAware
03:44AM -32.8464 154.0786 225° Southwest 425 489 38,000  Level Aus ATC (RADAR)
03:45AM -32.8760 154.0420 225° Southwest 425 489 38,000  Level FlightAware
03:45AM -32.8942 154.0207 225° Southwest 426 490 38,000  Level Aus ATC (RADAR)
03:45AM -32.9260 153.9820 225° Southwest 429 494 38,000  Level FlightAware
03:46AM -32.9670 153.9320 225° Southwest 434 499 38,000  Level FlightAware
03:46AM -32.9924 153.9030 225° Southwest 433 498 38,000  Level Aus ATC (RADAR)
03:47AM -33.0407 153.8449 225° Southwest 424 488 38,000  Level Aus ATC (RADAR)
03:47AM -33.0590 153.8220 225° Southwest 437 503 38,000  Level FlightAware
03:47AM -33.1110 153.7590 225° Southwest 438 504 38,000  Level FlightAware
03:48AM -33.1271 153.7403 225° Southwest 437 503 38,000  Level Aus ATC (RADAR)
03:48AM -33.1987 153.6540 225° Southwest 440 506 38,000  Level Aus ATC (RADAR)
03:49AM -33.2030 153.6480 225° Southwest 440 506 38,000  Level FlightAware
03:49AM -33.2550 153.5850 225° Southwest 441 507 38,000  Level FlightAware
03:49AM -33.2628 153.5759 225° Southwest 443 510 38,000 -180 Level Aus ATC (RADAR)
03:50AM -33.3128 153.5153 225° Southwest 441 507 37,900  Descending Aus ATC (RADAR)
03:50AM -33.3080 153.5200 225° Southwest 442 509 38,000 180 Climbing FlightAware
03:50AM -33.3530 153.4650 225° Southwest 440 506 38,000  Level FlightAware
03:50AM -33.3622 153.4544 225° Southwest 440 506 38,000  Level Aus ATC (RADAR)
03:51AM -33.4121 153.3935 225° Southwest 440 506 38,000  Level Aus ATC (RADAR)
03:51AM -33.4290 153.3730 225° Southwest 439 505 38,000  Level FlightAware
03:52AM -33.5210 153.2600 226° Southwest 439 505 38,000  Level FlightAware
03:53AM -33.5680 153.2020 226° Southwest 439 505 38,000  Level FlightAware
03:53AM -33.5756 153.1939 226° Southwest 440 506 38,000 -360 Level Aus ATC (RADAR)
03:54AM -33.6500 153.1020 226° Southwest 435 501 37,700 -540 Descending FlightAware
03:54AM -33.6603 153.0898 226° Southwest 437 503 37,500 -2,520 Descending Aus ATC (RADAR)
03:54AM -33.6920 153.0490 226° Southwest 436 502 36,400 -2,880 Descending FlightAware
03:54AM -33.7083 153.0308 226° Southwest 431 496 35,900 -3,480 Descending Aus ATC (RADAR)
03:55AM -33.7581 152.9689 226° Southwest 438 504 34,000 -2,940 Descending Aus ATC (RADAR)
03:55AM -33.7650 152.9600 226° Southwest 448 516 33,800 -2,460 Descending FlightAware
03:56AM -33.8170 152.8950 226° Southwest 448 516 32,200 -2,460 Descending FlightAware
03:57AM -33.8920 152.8020 226° Southwest 439 505 30,200 -2,520 Descending FlightAware
03:57AM -33.9024 152.7901 226° Southwest 442 509 29,900 -2,280 Descending Aus ATC (RADAR)
03:57AM -33.9240 152.7630 225° Southwest 433 498 29,300 -2,100 Descending FlightAware
03:58AM -33.9820 152.6910 225° Southwest 425 489 27,800 -2,400 Descending FlightAware
03:58AM -33.9909 152.6799 225° Southwest 423 487 27,500 -2,100 Descending Aus ATC (RADAR)
03:58AM -34.0150 152.6500 225° Southwest 420 483 26,900 -2,160 Descending FlightAware
03:58AM -34.0249 152.6377 225° Southwest 419 482 26,600 -2,520 Descending Aus ATC (RADAR)
03:59AM -34.0690 152.5773 225° Southwest 414 476 25,300 -2,040 Descending Aus ATC (RADAR)
03:59AM -34.0770 152.5340 225° Southwest 369 425 24,600 -1,920 Descending FlightAware
04:00AM -34.0730 152.4700 274° West 352 405 23,500 -2,100 Descending FlightAware
04:00AM -34.0670 152.4060 276° West 344 396 22,400 -2,040 Descending FlightAware
04:01AM -34.0600 152.3320 276° West 335 386 21,100 -2,460 Descending FlightAware
04:01AM -34.0553 152.2822 276° West 339 390 19,800 -2,040 Descending FlightAware ADS-B
04:02AM -34.0497 152.2232 276° West 331 381 19,200 -1,380 Descending Aus ATC (RADAR)
04:02AM -34.0499 152.2247 276° West 335 386 19,100 -1,860 Descending FlightAware ADS-B
04:03AM -34.0410 152.1334 277° West 327 376 17,700 -1,800 Descending FlightAware ADS-B
04:03AM -34.0357 152.0788 277° West 320 368 16,700 -1,980 Descending FlightAware ADS-B
04:04AM -34.0305 152.0251 277° West 315 362 15,700 -1,860 Descending FlightAware ADS-B
04:04AM -34.0239 151.9604 277° West 310 357 14,600 -1,860 Descending FlightAware ADS-B
04:05AM -34.0172 151.8912 277° West 304 350 13,300 -1,800 Descending FlightAware ADS-B
04:06AM -34.0097 151.8205 277° West 301 346 12,100 -1,800 Descending FlightAware ADS-B
04:06AM -34.0031 151.7549 277° West 301 346 10,900 -1,560 Descending FlightAware ADS-B
04:07AM -33.9990 151.7127 277° West 287 330 10,300 -780 Descending FlightAware ADS-B (YWST)
04:07AM -33.9932 151.6568 277° West 278 320 10,100 -1,020 Descending FlightAware ADS-B
04:08AM -33.9865 151.5924 277° West 269 310 9,100 -1,140 Descending Aus ATC (RADAR)
04:08AM -33.9848 151.5761 277° West 267 307 9,100  Level FlightAware ADS-B (YWST)
04:08AM -33.9830 151.5580 277° West 263 303 9,100  Level FlightAware ADS-B
04:09AM -33.9798 151.5151 275° West 260 299 9,100  Level FlightAware ADS-B
04:09AM -33.9829 151.4918 261° West 261 300 9,100 -180 Level FlightAware ADS-B
04:09AM -33.9871 151.4647 259° West 261 300 9,000 -420 Descending FlightAware ADS-B (YWST)
04:10AM -33.9923 151.4302 260° West 266 306 8,800 -480 Descending FlightAware ADS-B
04:10AM -33.9955 151.4085 260° West 267 307 8,700 -540 Descending FlightAware ADS-B (YWST)
04:10AM -33.9998 151.3790 260° West 270 311 8,500 -660 Descending FlightAware ADS-B (YWST)
04:11AM -34.0037 151.3507 261° West 270 311 8,300 -720 Descending FlightAware ADS-B (YWST)
04:11AM -34.0063 151.3307 261° West 270 311 8,100 -600 Descending FlightAware ADS-B
04:11AM -34.0096 151.3057 261° West 271 312 8,000 -720 Descending FlightAware ADS-B (YWST)
04:12AM -34.0134 151.2768 261° West 271 312 7,700 -720 Descending FlightAware ADS-B (YWST)
04:12AM -34.0164 151.2532 261° West 271 312 7,600 -660 Descending FlightAware ADS-B
04:12AM -34.0201 151.2318 258° West 271 312 7,400 -840 Descending FlightAware ADS-B (YWST)
04:12AM -34.0273 151.2146 243° Southwest 271 312 7,200 -1,020 Descending FlightAware ADS-B
04:13AM -34.0378 151.1924 240° Southwest 271 312 6,900 -1,080 Descending FlightAware ADS-B (YWST)
04:13AM -34.0502 151.1658 241° Southwest 273 314 6,600 -900 Descending FlightAware ADS-B (YWST)
04:13AM -34.0628 151.1388 241° Southwest 271 312 6,300 -900 Descending FlightAware ADS-B (YWST)
04:14AM -34.0751 151.1151 238° Southwest 274 315 6,000 -960 Descending FlightAware ADS-B
04:14AM -34.0821 151.1075 222° Southwest 274 315 5,900 -1,200 Descending FlightAware ADS-B (YWST)
04:14AM -34.0857 151.1046 213° Southwest 273 314 5,800 -1,800 Descending FlightAware ADS-B
04:14AM -34.0934 151.1005 204° Southwest 277 319 5,600 -1,680 Descending FlightAware ADS-B (YWST)
04:14AM -34.0963 151.0994 197° South 279 321 5,500 -1,800 Descending FlightAware ADS-B
04:14AM -34.1035 151.0978 190° South 281 323 5,300 -1,620 Descending FlightAware ADS-B (YWST)
04:14AM -34.1185 151.0993 175° South 281 323 5,100 -1,020 Descending FlightAware ADS-B (YWST)
04:14AM -34.1277 151.1026 164° South 279 321 5,000 -600 Descending FlightAware ADS-B (YWST)
04:15AM -34.1412 151.1077 162° South 280 322 4,900 -720 Descending FlightAware ADS-B (YWST)
04:15AM -34.1695 151.1190 162° South 275 316 4,600 -720 Descending FlightAware ADS-B
04:15AM -34.1817 151.1294 145° Southeast 266 306 4,500 -600 Descending FlightAware ADS-B (YWST)
04:15AM -34.1889 151.1419 125° Southeast 261 300 4,400 -900 Descending FlightAware ADS-B (YWST)
04:15AM -34.1921 151.1551 106° East 254 292 4,200 -900 Descending FlightAware ADS-B
04:16AM -34.1916 151.1693 88° East 246 283 4,100 -720 Descending FlightAware ADS-B (YWST)
04:16AM -34.1892 151.1775 71° East 237 273 4,000 -300 Descending FlightAware ADS-B
04:16AM -34.1814 151.1898 52° Northeast 227 261 4,000 -300 Level FlightAware ADS-B
04:16AM -34.1752 151.1947 33° Northeast 216 249 3,900 -840 Descending FlightAware ADS-B
04:16AM -34.1550 151.2059 25° Northeast 205 236 3,600 -780 Descending FlightAware ADS-B
04:17AM -34.1393 151.2145 24° Northeast 199 229 3,400 -660 Descending FlightAware ADS-B
04:17AM -34.1393 151.2145 24° Northeast 190 219 3,300 -900 Descending FlightAware ADS-B
04:17AM -34.1393 151.2145 24° Northeast 189 217 3,000 -1,020 Descending FlightAware ADS-B
04:17AM -34.1056 151.2176 North 198 228 2,800 -1,080 Descending FlightAware ADS-B
04:18AM -34.0906 151.2133 347° North 182 209 2,500 -900 Descending FlightAware ADS-B
04:18AM -34.0832 151.2113 347° North 181 208 2,400 -840 Descending FlightAware ADS-B
04:18AM -34.0670 151.2071 348° North 175 201 2,100 -900 Descending FlightAware ADS-B (YWST)
04:19AM -34.0505 151.2029 348° North 160 184 1,800 -1,020 Descending FlightAware ADS-B
04:19AM -34.0355 151.1991 348° North 150 173 1,400 -840 Descending FlightAware ADS-B
04:19AM -34.0204 151.1951 348° North 144 166 1,200 -780 Descending FlightAware ADS-B
04:20AM -34.0090 151.1922 348° North 144 166 900 -840 Descending FlightAware ADS-B
04:20AM -33.9959 151.1888 348° North 143 165 700 -780 Descending FlightAware ADS-B
04:20AM -33.9727 151.1830 348° North 142 163 200 -780 Descending Aus ATC (RADAR)
04:21AM -33.9650 151.1810 348° North 137 158 100 -480 Descending FlightAware
04:21AM -33.9566 151.1786 347° North 135 155 -600 Descending FlightAware ADS-B